CheckWX is a tool to help pilots better visualize weather data.  It is not intended as a substitute for an official pre-flight weather briefing.

05:22:56 UTC

KBLI METAR
Bellingham International Airport
Bellingham, Washington, USA
Current

30 mins ago

KBLI 240453Z 02003KT 10SM OVC060 03/M01 A3007 RMK AO2 SLP190 T00281006
Observed
Feb-24 @ 04:53 UTC
Wind
  • 020° at 3 KTS
Visibility
10 SM
Flight Rules
VFR
Cloud Levels
  • Overcast at 6,000' AGL
Temperature
C / 37°F
Dewpoint
-1°C / 30°F
Humidity
75%
Altimeter
30.07" Hg
Pressure
1019 hPa
Previous

1 hour ago

KBLI 240353Z 01005KT 10SM OVC047 03/M01 A3006 RMK AO2 SLP188 T00281006
Observed
Feb-24 @ 03:53 UTC
Wind
  • 010° at 5 KTS
Visibility
10 SM
Flight Rules
VFR
Cloud Levels
  • Overcast at 4,700' AGL
Temperature
C / 37°F
Dewpoint
-1°C / 30°F
Humidity
75%
Altimeter
30.06" Hg
Pressure
1018.8 hPa
Previous

2 hours ago

KBLI 240253Z 03006KT 10SM BKN040 OVC050 03/00 A3007 RMK AO2 SLP192 T00330000 56004
Observed
Feb-24 @ 02:53 UTC
Wind
  • 030° at 6 KTS
Visibility
10 SM
Flight Rules
VFR
Cloud Levels
  • Broken at 4,000' AGL
  • Overcast at 5,000' AGL
Temperature
C / 37°F
Dewpoint
C / 32°F
Humidity
81%
Altimeter
30.07" Hg
Pressure
1019.2 hPa